sensor_id;sensor_type;location;lat;lon;timestamp;pressure;altitude;pressure_sealevel;temperature;humidity
42705;BME280;28342;42.594;23.414;2023-03-21T00:01:55;94331.31;;;11.66;57.14
42705;BME280;28342;42.594;23.414;2023-03-21T00:05:12;94300.75;;;11.51;57.29
42705;BME280;28342;42.594;23.414;2023-03-21T00:08:50;94315.53;;;11.70;57.37
42705;BME280;28342;42.594;23.414;2023-03-21T00:12:13;94274.69;;;11.36;57.73
42705;BME280;28342;42.594;23.414;2023-03-21T00:15:43;94304.66;;;11.45;57.89
42705;BME280;28342;42.594;23.414;2023-03-21T00:18:44;94288.44;;;11.38;57.92
42705;BME280;28342;42.594;23.414;2023-03-21T00:21:44;94306.50;;;11.53;58.23
42705;BME280;28342;42.594;23.414;2023-03-21T00:24:26;94299.97;;;11.42;57.78
42705;BME280;28342;42.594;23.414;2023-03-21T00:27:51;94298.75;;;11.31;58.19
42705;BME280;28342;42.594;23.414;2023-03-21T00:31:34;94307.53;;;11.23;58.14
42705;BME280;28342;42.594;23.414;2023-03-21T00:38:09;94307.19;;;11.16;58.33
42705;BME280;28342;42.594;23.414;2023-03-21T00:41:32;94313.16;;;11.21;58.99
42705;BME280;28342;42.594;23.414;2023-03-21T00:44:39;94316.91;;;11.12;58.74
42705;BME280;28342;42.594;23.414;2023-03-21T00:48:22;94313.31;;;11.07;58.71
42705;BME280;28342;42.594;23.414;2023-03-21T00:51:32;94311.72;;;11.15;58.82
42705;BME280;28342;42.594;23.414;2023-03-21T00:55:00;94308.47;;;11.18;59.06
42705;BME280;28342;42.594;23.414;2023-03-21T00:58:18;94289.13;;;10.92;59.17
42705;BME280;28342;42.594;23.414;2023-03-21T01:01:31;94310.97;;;10.97;59.77
42705;BME280;28342;42.594;23.414;2023-03-21T01:04:59;94275.88;;;10.83;59.83
42705;BME280;28342;42.594;23.414;2023-03-21T01:15:16;94305.38;;;10.90;60.22
42705;BME280;28342;42.594;23.414;2023-03-21T01:25:58;94306.75;;;10.70;60.46
42705;BME280;28342;42.594;23.414;2023-03-21T01:29:10;94305.69;;;10.63;60.66
42705;BME280;28342;42.594;23.414;2023-03-21T01:36:08;94286.47;;;10.40;60.59
42705;BME280;28342;42.594;23.414;2023-03-21T01:39:38;94293.63;;;10.39;60.72
42705;BME280;28342;42.594;23.414;2023-03-21T01:43:16;94295.19;;;10.32;60.47
42705;BME280;28342;42.594;23.414;2023-03-21T01:46:48;94298.78;;;10.27;60.59
42705;BME280;28342;42.594;23.414;2023-03-21T01:50:25;94310.88;;;10.11;61.09
42705;BME280;28342;42.594;23.414;2023-03-21T01:54:20;94296.47;;;9.95;60.83
42705;BME280;28342;42.594;23.414;2023-03-21T01:57:53;94313.97;;;9.96;60.50
42705;BME280;28342;42.594;23.414;2023-03-21T02:01:27;94309.72;;;9.95;61.50
42705;BME280;28342;42.594;23.414;2023-03-21T02:05:07;94292.25;;;9.85;61.98
42705;BME280;28342;42.594;23.414;2023-03-21T02:08:51;94288.78;;;9.76;62.10
42705;BME280;28342;42.594;23.414;2023-03-21T02:31:40;94302.53;;;9.47;61.36
42705;BME280;28342;42.594;23.414;2023-03-21T02:35:32;94286.22;;;9.22;61.77
42705;BME280;28342;42.594;23.414;2023-03-21T02:46:16;94308.66;;;9.03;64.17
42705;BME280;28342;42.594;23.414;2023-03-21T02:56:40;94300.66;;;8.94;63.99
42705;BME280;28342;42.594;23.414;2023-03-21T03:07:27;94283.13;;;8.76;66.74
42705;BME280;28342;42.594;23.414;2023-03-21T03:10:53;94294.41;;;8.67;67.34
42705;BME280;28342;42.594;23.414;2023-03-21T03:17:49;94265.63;;;8.30;65.21
42705;BME280;28342;42.594;23.414;2023-03-21T03:28:44;94291.28;;;8.43;66.74
42705;BME280;28342;42.594;23.414;2023-03-21T03:32:20;94289.28;;;8.49;66.82
42705;BME280;28342;42.594;23.414;2023-03-21T03:36:04;94285.50;;;8.63;66.75
42705;BME280;28342;42.594;23.414;2023-03-21T03:43:18;94257.56;;;8.49;67.38
42705;BME280;28342;42.594;23.414;2023-03-21T04:03:46;94305.16;;;8.21;66.12
42705;BME280;28342;42.594;23.414;2023-03-21T04:31:06;94289.75;;;8.01;68.07
42705;BME280;28342;42.594;23.414;2023-03-21T05:06:27;94307.66;;;7.63;71.16
42705;BME280;28342;42.594;23.414;2023-03-21T05:32:41;94305.97;;;8.08;71.05
42705;BME280;28342;42.594;23.414;2023-03-21T06:08:15;94290.59;;;8.74;69.13
42705;BME280;28342;42.594;23.414;2023-03-21T06:35:01;94271.16;;;9.32;67.08
42705;BME280;28342;42.594;23.414;2023-03-21T06:38:46;94273.72;;;9.45;66.76
42705;BME280;28342;42.594;23.414;2023-03-21T06:42:07;94243.34;;;9.43;66.57
42705;BME280;28342;42.594;23.414;2023-03-21T06:45:05;94238.72;;;9.57;65.70
42705;BME280;28342;42.594;23.414;2023-03-21T06:47:34;94245.00;;;9.78;65.32
42705;BME280;28342;42.594;23.414;2023-03-21T06:49:59;94250.19;;;9.83;64.78
42705;BME280;28342;42.594;23.414;2023-03-21T06:52:25;94270.63;;;10.09;64.91
42705;BME280;28342;42.594;23.414;2023-03-21T06:54:51;94269.53;;;10.10;63.62
42705;BME280;28342;42.594;23.414;2023-03-21T06:57:16;94276.19;;;10.30;62.99
42705;BME280;28342;42.594;23.414;2023-03-21T06:59:42;94271.50;;;10.44;62.59
42705;BME280;28342;42.594;23.414;2023-03-21T07:02:09;94274.31;;;10.56;62.30
42705;BME280;28342;42.594;23.414;2023-03-21T07:04:44;94235.63;;;10.38;61.65
42705;BME280;28342;42.594;23.414;2023-03-21T07:07:10;94275.41;;;10.81;61.85
42705;BME280;28342;42.594;23.414;2023-03-21T07:09:35;94252.78;;;10.75;60.51
42705;BME280;28342;42.594;23.414;2023-03-21T07:12:02;94262.31;;;10.76;59.89
42705;BME280;28342;42.594;23.414;2023-03-21T07:14:28;94275.38;;;10.98;60.35
42705;BME280;28342;42.594;23.414;2023-03-21T07:16:56;94284.75;;;11.04;61.36
42705;BME280;28342;42.594;23.414;2023-03-21T07:19:21;94288.78;;;11.11;60.80
42705;BME280;28342;42.594;23.414;2023-03-21T07:21:47;94276.91;;;11.34;61.27
42705;BME280;28342;42.594;23.414;2023-03-21T07:24:12;94283.84;;;11.47;60.58
42705;BME280;28342;42.594;23.414;2023-03-21T07:26:39;94266.88;;;11.31;59.05
42705;BME280;28342;42.594;23.414;2023-03-21T07:29:04;94265.78;;;11.41;59.18
42705;BME280;28342;42.594;23.414;2023-03-21T07:31:30;94284.09;;;11.80;60.50
42705;BME280;28342;42.594;23.414;2023-03-21T07:33:55;94280.13;;;11.95;59.96
42705;BME280;28342;42.594;23.414;2023-03-21T07:36:30;94268.28;;;12.13;58.75
42705;BME280;28342;42.594;23.414;2023-03-21T07:38:57;94274.28;;;12.31;57.92
42705;BME280;28342;42.594;23.414;2023-03-21T07:41:23;94283.56;;;12.46;56.82
42705;BME280;28342;42.594;23.414;2023-03-21T07:43:49;94281.44;;;12.60;57.26
42705;BME280;28342;42.594;23.414;2023-03-21T07:46:15;94270.72;;;12.69;56.70
42705;BME280;28342;42.594;23.414;2023-03-21T07:48:40;94241.72;;;12.55;56.55
42705;BME280;28342;42.594;23.414;2023-03-21T07:51:06;94276.50;;;12.71;56.83
42705;BME280;28342;42.594;23.414;2023-03-21T07:53:32;94274.63;;;12.71;56.75
42705;BME280;28342;42.594;23.414;2023-03-21T07:55:57;94287.34;;;12.86;57.69
42705;BME280;28342;42.594;23.414;2023-03-21T07:58:24;94273.56;;;12.84;57.86
42705;BME280;28342;42.594;23.414;2023-03-21T08:00:50;94269.91;;;13.10;57.56
42705;BME280;28342;42.594;23.414;2023-03-21T08:03:16;94281.41;;;13.23;57.19
42705;BME280;28342;42.594;23.414;2023-03-21T08:05:43;94289.31;;;13.43;56.96
42705;BME280;28342;42.594;23.414;2023-03-21T08:08:09;94292.25;;;13.63;56.40
42705;BME280;28342;42.594;23.414;2023-03-21T08:10:35;94274.69;;;13.62;53.41
42705;BME280;28342;42.594;23.414;2023-03-21T08:13:00;94294.09;;;13.95;51.97
42705;BME280;28342;42.594;23.414;2023-03-21T08:15:27;94297.06;;;14.18;52.34
42705;BME280;28342;42.594;23.414;2023-03-21T08:17:53;94292.94;;;14.33;53.41
42705;BME280;28342;42.594;23.414;2023-03-21T08:20:20;94259.63;;;14.27;52.03
42705;BME280;28342;42.594;23.414;2023-03-21T08:22:46;94282.13;;;14.66;51.35
42705;BME280;28342;42.594;23.414;2023-03-21T08:25:13;94275.81;;;14.71;52.41
42705;BME280;28342;42.594;23.414;2023-03-21T08:27:42;94280.91;;;14.76;50.88
42705;BME280;28342;42.594;23.414;2023-03-21T08:30:15;94243.38;;;14.56;50.29
42705;BME280;28342;42.594;23.414;2023-03-21T08:32:41;94255.88;;;14.68;50.35
42705;BME280;28342;42.594;23.414;2023-03-21T08:35:09;94266.00;;;14.75;50.41
42705;BME280;28342;42.594;23.414;2023-03-21T08:37:39;94258.97;;;14.70;51.61
42705;BME280;28342;42.594;23.414;2023-03-21T08:40:08;94270.94;;;14.60;50.83
42705;BME280;28342;42.594;23.414;2023-03-21T08:42:38;94257.56;;;14.60;51.50
42705;BME280;28342;42.594;23.414;2023-03-21T08:45:05;94270.66;;;14.78;50.96
42705;BME280;28342;42.594;23.414;2023-03-21T08:47:31;94285.78;;;14.86;52.22
42705;BME280;28342;42.594;23.414;2023-03-21T08:49:57;94273.06;;;14.83;50.63
42705;BME280;28342;42.594;23.414;2023-03-21T08:52:26;94250.66;;;14.72;51.41
42705;BME280;28342;42.594;23.414;2023-03-21T08:54:52;94276.41;;;14.92;51.58
42705;BME280;28342;42.594;23.414;2023-03-21T08:57:18;94270.72;;;14.93;51.46
42705;BME280;28342;42.594;23.414;2023-03-21T08:59:43;94267.00;;;14.98;51.67
42705;BME280;28342;42.594;23.414;2023-03-21T09:02:13;94251.06;;;14.86;51.33
42705;BME280;28342;42.594;23.414;2023-03-21T09:04:38;94271.44;;;15.06;51.03
42705;BME280;28342;42.594;23.414;2023-03-21T09:07:06;94259.97;;;15.06;51.92
42705;BME280;28342;42.594;23.414;2023-03-21T09:09:40;94246.97;;;15.04;51.50
42705;BME280;28342;42.594;23.414;2023-03-21T09:12:06;94271.75;;;15.17;50.25
42705;BME280;28342;42.594;23.414;2023-03-21T09:14:32;94268.91;;;15.25;50.01
42705;BME280;28342;42.594;23.414;2023-03-21T09:17:01;94256.88;;;15.32;49.69
42705;BME280;28342;42.594;23.414;2023-03-21T09:19:26;94267.88;;;15.46;49.43
42705;BME280;28342;42.594;23.414;2023-03-21T09:21:53;94247.91;;;15.40;48.64
42705;BME280;28342;42.594;23.414;2023-03-21T09:24:20;94234.25;;;15.45;47.84
42705;BME280;28342;42.594;23.414;2023-03-21T09:26:46;94241.44;;;15.57;49.07
42705;BME280;28342;42.594;23.414;2023-03-21T09:29:15;94248.56;;;15.80;48.44
42705;BME280;28342;42.594;23.414;2023-03-21T09:31:43;94242.88;;;15.82;46.70
42705;BME280;28342;42.594;23.414;2023-03-21T09:34:08;94238.44;;;15.90;46.81
42705;BME280;28342;42.594;23.414;2023-03-21T09:36:34;94216.19;;;15.86;47.62
42705;BME280;28342;42.594;23.414;2023-03-21T09:39:00;94238.19;;;16.10;46.12
42705;BME280;28342;42.594;23.414;2023-03-21T09:49:19;94229.16;;;16.54;44.62
42705;BME280;28342;42.594;23.414;2023-03-21T09:51:48;94197.53;;;16.59;43.82
42705;BME280;28342;42.594;23.414;2023-03-21T09:54:27;94210.28;;;16.66;44.14
42705;BME280;28342;42.594;23.414;2023-03-21T09:56:56;94216.72;;;16.81;42.98
42705;BME280;28342;42.594;23.414;2023-03-21T09:59:33;94204.38;;;16.57;42.99
42705;BME280;28342;42.594;23.414;2023-03-21T10:02:03;94225.50;;;16.62;44.71
42705;BME280;28342;42.594;23.414;2023-03-21T10:04:41;94205.34;;;16.49;43.26
42705;BME280;28342;42.594;23.414;2023-03-21T10:07:09;94194.16;;;16.62;44.00
42705;BME280;28342;42.594;23.414;2023-03-21T10:09:42;94210.72;;;17.07;42.88
42705;BME280;28342;42.594;23.414;2023-03-21T10:12:29;94204.75;;;17.36;43.90
42705;BME280;28342;42.594;23.414;2023-03-21T10:14:57;94180.09;;;17.73;44.79
42705;BME280;28342;42.594;23.414;2023-03-21T10:17:39;94197.97;;;17.88;42.95
42705;BME280;28342;42.594;23.414;2023-03-21T10:20:37;94188.94;;;18.00;40.85
42705;BME280;28342;42.594;23.414;2023-03-21T10:23:05;94188.41;;;17.68;39.96
42705;BME280;28342;42.594;23.414;2023-03-21T10:25:42;94167.41;;;17.47;42.71
42705;BME280;28342;42.594;23.414;2023-03-21T10:28:14;94188.38;;;18.13;40.87
42705;BME280;28342;42.594;23.414;2023-03-21T10:33:21;94189.72;;;18.57;39.18
42705;BME280;28342;42.594;23.414;2023-03-21T10:35:51;94199.41;;;18.35;39.41
42705;BME280;28342;42.594;23.414;2023-03-21T10:38:19;94209.88;;;18.43;39.89
42705;BME280;28342;42.594;23.414;2023-03-21T10:40:47;94200.94;;;18.36;37.84
42705;BME280;28342;42.594;23.414;2023-03-21T10:45:51;94193.38;;;17.88;39.54
42705;BME280;28342;42.594;23.414;2023-03-21T10:48:16;94188.53;;;17.75;40.26
42705;BME280;28342;42.594;23.414;2023-03-21T10:50:46;94186.50;;;17.91;39.46
42705;BME280;28342;42.594;23.414;2023-03-21T10:53:22;94192.72;;;17.95;38.31
42705;BME280;28342;42.594;23.414;2023-03-21T10:55:54;94165.16;;;17.98;39.41
42705;BME280;28342;42.594;23.414;2023-03-21T10:58:25;94181.84;;;17.88;40.26
42705;BME280;28342;42.594;23.414;2023-03-21T11:01:13;94182.78;;;17.99;39.25
42705;BME280;28342;42.594;23.414;2023-03-21T11:03:44;94164.28;;;18.20;37.72
42705;BME280;28342;42.594;23.414;2023-03-21T11:08:50;94164.81;;;18.30;37.67
42705;BME280;28342;42.594;23.414;2023-03-21T11:11:27;94162.00;;;18.49;37.24
42705;BME280;28342;42.594;23.414;2023-03-21T11:14:05;94164.22;;;18.43;35.51
42705;BME280;28342;42.594;23.414;2023-03-21T11:16:43;94158.53;;;18.78;36.82
42705;BME280;28342;42.594;23.414;2023-03-21T11:21:42;94156.66;;;18.83;36.00
42705;BME280;28342;42.594;23.414;2023-03-21T11:24:16;94143.72;;;18.95;35.40
42705;BME280;28342;42.594;23.414;2023-03-21T11:26:47;94145.97;;;19.27;34.18
42705;BME280;28342;42.594;23.414;2023-03-21T11:29:25;94157.56;;;19.34;34.39
42705;BME280;28342;42.594;23.414;2023-03-21T11:31:51;94138.50;;;19.54;33.85
42705;BME280;28342;42.594;23.414;2023-03-21T11:34:33;94141.84;;;19.81;32.71
42705;BME280;28342;42.594;23.414;2023-03-21T11:37:03;94146.16;;;19.92;33.20
42705;BME280;28342;42.594;23.414;2023-03-21T11:39:35;94135.31;;;19.85;32.91
42705;BME280;28342;42.594;23.414;2023-03-21T11:42:04;94128.56;;;19.58;32.89
42705;BME280;28342;42.594;23.414;2023-03-21T11:44:42;94105.47;;;19.09;31.09
42705;BME280;28342;42.594;23.414;2023-03-21T11:47:09;94136.97;;;19.08;31.83
42705;BME280;28342;42.594;23.414;2023-03-21T11:49:35;94139.63;;;19.05;32.49
42705;BME280;28342;42.594;23.414;2023-03-21T12:00:25;94108.03;;;19.35;33.79
42705;BME280;28342;42.594;23.414;2023-03-21T12:06:01;94096.16;;;19.44;32.16
42705;BME280;28342;42.594;23.414;2023-03-21T12:11:19;94106.91;;;19.44;34.67
42705;BME280;28342;42.594;23.414;2023-03-21T12:17:04;94096.69;;;19.60;34.88
42705;BME280;28342;42.594;23.414;2023-03-21T12:19:45;94090.09;;;19.54;33.74
42705;BME280;28342;42.594;23.414;2023-03-21T12:22:43;94095.88;;;19.08;36.73
42705;BME280;28342;42.594;23.414;2023-03-21T12:25:18;94093.78;;;19.31;36.05
42705;BME280;28342;42.594;23.414;2023-03-21T12:30:50;94069.56;;;18.87;35.01
42705;BME280;28342;42.594;23.414;2023-03-21T12:33:24;94089.59;;;18.97;33.88
42705;BME280;28342;42.594;23.414;2023-03-21T12:41:23;94072.09;;;19.14;35.35
42705;BME280;28342;42.594;23.414;2023-03-21T12:44:04;94075.22;;;18.78;34.92
42705;BME280;28342;42.594;23.414;2023-03-21T12:46:39;94050.91;;;18.64;36.33
42705;BME280;28342;42.594;23.414;2023-03-21T12:51:50;94066.00;;;19.17;33.29
42705;BME280;28342;42.594;23.414;2023-03-21T12:54:29;94060.50;;;19.02;35.51
42705;BME280;28342;42.594;23.414;2023-03-21T12:57:00;94054.59;;;19.30;35.08
42705;BME280;28342;42.594;23.414;2023-03-21T13:05:06;94040.03;;;18.91;35.43
42705;BME280;28342;42.594;23.414;2023-03-21T13:07:38;94027.69;;;18.49;34.99
42705;BME280;28342;42.594;23.414;2023-03-21T13:10:13;94051.63;;;18.61;36.85
42705;BME280;28342;42.594;23.414;2023-03-21T13:12:41;94056.78;;;18.73;36.23
42705;BME280;28342;42.594;23.414;2023-03-21T13:20:57;94031.09;;;18.79;36.97
42705;BME280;28342;42.594;23.414;2023-03-21T13:23:33;94029.19;;;18.43;35.70
42705;BME280;28342;42.594;23.414;2023-03-21T13:25:59;94032.41;;;18.56;36.61
42705;BME280;28342;42.594;23.414;2023-03-21T13:28:32;94023.97;;;18.57;36.37
42705;BME280;28342;42.594;23.414;2023-03-21T13:31:19;94035.59;;;18.68;36.19
42705;BME280;28342;42.594;23.414;2023-03-21T13:33:50;94035.34;;;18.43;37.28
42705;BME280;28342;42.594;23.414;2023-03-21T13:39:47;94012.78;;;18.18;36.07
42705;BME280;28342;42.594;23.414;2023-03-21T13:42:50;94002.53;;;18.24;38.49
42705;BME280;28342;42.594;23.414;2023-03-21T13:45:51;94005.50;;;18.18;36.77
42705;BME280;28342;42.594;23.414;2023-03-21T13:48:31;94017.69;;;18.09;36.52
42705;BME280;28342;42.594;23.414;2023-03-21T13:57:45;94013.34;;;17.97;37.69
42705;BME280;28342;42.594;23.414;2023-03-21T14:07:32;94013.84;;;17.23;38.53
42705;BME280;28342;42.594;23.414;2023-03-21T14:10:21;93984.31;;;17.20;38.53
42705;BME280;28342;42.594;23.414;2023-03-21T14:13:07;93981.28;;;16.98;38.88
42705;BME280;28342;42.594;23.414;2023-03-21T14:15:50;94008.63;;;17.34;38.88
42705;BME280;28342;42.594;23.414;2023-03-21T14:21:45;93981.78;;;16.81;39.00
42705;BME280;28342;42.594;23.414;2023-03-21T14:24:19;94006.88;;;17.19;40.40
42705;BME280;28342;42.594;23.414;2023-03-21T14:26:52;93966.13;;;16.83;39.46
42705;BME280;28342;42.594;23.414;2023-03-21T14:29:58;93968.56;;;16.92;39.19
42705;BME280;28342;42.594;23.414;2023-03-21T14:32:27;94006.81;;;17.42;39.84
42705;BME280;28342;42.594;23.414;2023-03-21T14:35:14;93987.78;;;16.97;38.91
42705;BME280;28342;42.594;23.414;2023-03-21T14:38:05;94006.97;;;17.26;39.97
42705;BME280;28342;42.594;23.414;2023-03-21T14:40:58;93957.81;;;17.15;39.41
42705;BME280;28342;42.594;23.414;2023-03-21T14:43:44;94002.75;;;17.51;41.06
42705;BME280;28342;42.594;23.414;2023-03-21T14:46:32;94004.09;;;17.65;40.33
42705;BME280;28342;42.594;23.414;2023-03-21T14:51:39;93992.22;;;17.66;39.24
42705;BME280;28342;42.594;23.414;2023-03-21T14:54:22;93982.44;;;17.77;38.78
42705;BME280;28342;42.594;23.414;2023-03-21T14:56:54;93969.88;;;17.58;38.97
42705;BME280;28342;42.594;23.414;2023-03-21T14:59:23;93981.91;;;17.15;38.80
42705;BME280;28342;42.594;23.414;2023-03-21T15:02:17;93982.97;;;17.33;39.00
42705;BME280;28342;42.594;23.414;2023-03-21T15:05:23;94002.63;;;17.44;39.50
42705;BME280;28342;42.594;23.414;2023-03-21T15:08:13;93958.44;;;17.05;39.55
42705;BME280;28342;42.594;23.414;2023-03-21T15:10:40;93955.22;;;16.95;39.43
42705;BME280;28342;42.594;23.414;2023-03-21T15:13:19;93961.22;;;16.85;39.61
42705;BME280;28342;42.594;23.414;2023-03-21T15:16:12;93997.81;;;17.27;39.99
42705;BME280;28342;42.594;23.414;2023-03-21T15:19:05;93996.09;;;17.15;39.72
42705;BME280;28342;42.594;23.414;2023-03-21T15:21:35;94003.84;;;17.20;40.11
42705;BME280;28342;42.594;23.414;2023-03-21T15:24:35;94004.19;;;16.92;40.21
42705;BME280;28342;42.594;23.414;2023-03-21T15:27:19;93985.19;;;16.78;41.19
42705;BME280;28342;42.594;23.414;2023-03-21T15:33:32;94020.34;;;16.99;43.69
42705;BME280;28342;42.594;23.414;2023-03-21T15:40:40;93997.50;;;16.18;47.55
42705;BME280;28342;42.594;23.414;2023-03-21T15:43:53;94019.56;;;16.11;50.28
42705;BME280;28342;42.594;23.414;2023-03-21T15:47:14;94005.81;;;15.74;47.86
42705;BME280;28342;42.594;23.414;2023-03-21T15:50:45;93987.31;;;15.65;48.44
42705;BME280;28342;42.594;23.414;2023-03-21T15:53:36;93978.63;;;15.52;49.14
42705;BME280;28342;42.594;23.414;2023-03-21T16:14:33;93989.69;;;14.69;60.21
42705;BME280;28342;42.594;23.414;2023-03-21T16:17:46;93993.31;;;14.92;59.70
42705;BME280;28342;42.594;23.414;2023-03-21T16:20:42;93988.06;;;14.95;60.26
42705;BME280;28342;42.594;23.414;2023-03-21T16:23:33;93976.81;;;14.86;59.11
42705;BME280;28342;42.594;23.414;2023-03-21T16:26:21;94001.25;;;14.73;61.91
42705;BME280;28342;42.594;23.414;2023-03-21T16:29:34;93984.56;;;14.60;61.83
42705;BME280;28342;42.594;23.414;2023-03-21T16:32:47;93999.59;;;14.68;62.22
42705;BME280;28342;42.594;23.414;2023-03-21T16:35:41;94014.25;;;14.74;63.02
42705;BME280;28342;42.594;23.414;2023-03-21T16:39:19;93985.09;;;14.38;63.08
42705;BME280;28342;42.594;23.414;2023-03-21T16:42:08;93965.13;;;14.16;62.61
42705;BME280;28342;42.594;23.414;2023-03-21T16:44:55;94005.00;;;14.40;61.63
42705;BME280;28342;42.594;23.414;2023-03-21T16:48:22;93980.00;;;14.17;60.73
42705;BME280;28342;42.594;23.414;2023-03-21T16:50:50;93991.03;;;14.31;60.75
42705;BME280;28342;42.594;23.414;2023-03-21T16:54:00;93996.38;;;14.31;60.37
42705;BME280;28342;42.594;23.414;2023-03-21T17:00:10;93995.41;;;14.23;59.39
42705;BME280;28342;42.594;23.414;2023-03-21T17:03:27;94001.16;;;14.10;60.99
42705;BME280;28342;42.594;23.414;2023-03-21T17:13:28;94024.66;;;14.20;63.92
42705;BME280;28342;42.594;23.414;2023-03-21T18:35:28;94074.03;;;12.31;84.32
42705;BME280;28342;42.594;23.414;2023-03-21T18:37:59;94055.72;;;12.17;84.19
42705;BME280;28342;42.594;23.414;2023-03-21T18:41:31;94100.25;;;12.41;84.46
42705;BME280;28342;42.594;23.414;2023-03-21T18:45:06;94088.19;;;12.22;85.88
42705;BME280;28342;42.594;23.414;2023-03-21T19:08:44;94098.25;;;12.17;87.87
42705;BME280;28342;42.594;23.414;2023-03-21T19:12:12;94102.94;;;11.99;89.58
42705;BME280;28342;42.594;23.414;2023-03-21T19:25:42;94107.28;;;11.83;89.97
42705;BME280;28342;42.594;23.414;2023-03-21T19:32:24;94104.84;;;11.19;94.04
42705;BME280;28342;42.594;23.414;2023-03-21T19:35:41;94108.50;;;11.35;92.38
42705;BME280;28342;42.594;23.414;2023-03-21T19:38:46;94094.59;;;11.38;92.39
42705;BME280;28342;42.594;23.414;2023-03-21T19:45:00;94104.53;;;11.50;93.54
42705;BME280;28342;42.594;23.414;2023-03-21T19:48:47;94069.72;;;11.43;92.49
42705;BME280;28342;42.594;23.414;2023-03-21T19:51:51;94045.00;;;11.21;92.04
42705;BME280;28342;42.594;23.414;2023-03-21T19:54:49;94096.84;;;11.48;93.15
42705;BME280;28342;42.594;23.414;2023-03-21T20:04:49;94062.66;;;11.47;91.54
42705;BME280;28342;42.594;23.414;2023-03-21T20:08:21;94104.06;;;11.68;91.96
42705;BME280;28342;42.594;23.414;2023-03-21T20:12:03;94081.56;;;11.45;91.87
42705;BME280;28342;42.594;23.414;2023-03-21T20:15:10;94096.75;;;11.65;91.47
42705;BME280;28342;42.594;23.414;2023-03-21T20:18:34;94086.22;;;11.48;91.26
42705;BME280;28342;42.594;23.414;2023-03-21T20:22:23;94108.78;;;11.63;91.04
42705;BME280;28342;42.594;23.414;2023-03-21T20:29:28;94097.94;;;11.18;94.31
42705;BME280;28342;42.594;23.414;2023-03-21T20:32:51;94110.97;;;11.40;93.48
42705;BME280;28342;42.594;23.414;2023-03-21T20:36:20;94110.50;;;11.38;92.69
42705;BME280;28342;42.594;23.414;2023-03-21T20:39:50;94113.09;;;11.47;91.83
42705;BME280;28342;42.594;23.414;2023-03-21T20:43:32;94104.56;;;11.41;92.01
42705;BME280;28342;42.594;23.414;2023-03-21T20:49:54;94108.50;;;11.35;92.56
42705;BME280;28342;42.594;23.414;2023-03-21T21:44:41;94123.47;;;10.55;94.30
42705;BME280;28342;42.594;23.414;2023-03-21T21:51:09;94112.38;;;10.53;92.71
42705;BME280;28342;42.594;23.414;2023-03-21T22:10:43;94099.34;;;10.13;93.09
42705;BME280;28342;42.594;23.414;2023-03-21T22:28:05;94107.13;;;10.09;89.70
42705;BME280;28342;42.594;23.414;2023-03-21T22:31:15;94134.09;;;10.37;89.00
42705;BME280;28342;42.594;23.414;2023-03-21T22:44:22;94087.16;;;9.95;91.04
42705;BME280;28342;42.594;23.414;2023-03-21T22:48:08;94122.09;;;10.23;90.78
42705;BME280;28342;42.594;23.414;2023-03-21T22:51:47;94129.13;;;10.27;90.44
42705;BME280;28342;42.594;23.414;2023-03-21T23:05:44;94131.63;;;10.32;91.28
42705;BME280;28342;42.594;23.414;2023-03-21T23:19:21;94136.41;;;9.70;96.44
42705;BME280;28342;42.594;23.414;2023-03-21T23:26:16;94111.72;;;9.26;100.00
42705;BME280;28342;42.594;23.414;2023-03-21T23:53:16;94126.59;;;9.70;99.36
